Trans Future 8 — 3EZG6 — position and weather

sailwx.info

Track history (hours):
 
Tides and Currents Weather Stations Pressure Air Temp Water Temp Dewpoint Dewpoint Depression Visibility Wind Speed Wind Dir Waves Ship Positions

Trans Future 8

Last reported at 2017-Sep-11 13:43 UTC. Time now 2017-Oct-20 06:52 UTC.
Position N 22°26' E 113°45'.
Warning: this ship's position is 38 days out of date.

Length 166 m; draft 6.5 m.

Type: Cargo ship. MMSI: 371320000.

Date/timePositionNaut miles runAvg speedWind from/ knotsBaromVisibWave heightAir tempDewpointWater temp
2017-Sep-11 13:43N 22°26' E 113°45'513.8
2017-Sep-11 13:22N 22°31' E 113°45'613.3
2017-Sep-11 12:56N 22°36' E 113°43'511.2
2017-Sep-11 12:31N 22°40' E 113°41'510.9
2017-Sep-11 12:01N 22°45' E 113°39'611.6
2017-Sep-11 11:31N 22°50' E 113°35'5 9.8
2017-Sep-11 11:01N 22°55' E 113°34'510.1
2017-Sep-11 10:30N 22°60' E 113°32'1 2.1
2017-Sep-11 09:58N 23°01' E 113°32'0 0.0
2017-Sep-11 09:28N 23°01' E 113°32'0 0.0
2017-Sep-11 08:58N 23°01' E 113°32'0 0.0
2017-Sep-11 08:28N 23°01' E 113°32'0 0.0
2017-Sep-11 07:58N 23°01' E 113°32'0 0.0
2017-Sep-11 07:28N 23°01' E 113°32'0 0.0
2017-Sep-11 06:58N 23°01' E 113°32'0 0.0
2017-Sep-11 06:28N 23°01' E 113°32'0 0.0
2017-Sep-11 05:58N 23°01' E 113°32'0 0.0
2017-Sep-11 05:28N 23°01' E 113°32'0 0.0
2017-Sep-11 04:55N 23°01' E 113°32'0 0.0
2017-Sep-11 04:28N 23°01' E 113°32'0 0.0
2017-Sep-11 03:52N 23°01' E 113°32'0 0.1
2017-Sep-11 03:28N 23°01' E 113°32'0 0.1
2017-Sep-11 02:58N 23°01' E 113°32'0 0.0
2017-Sep-11 02:28N 23°01' E 113°32'0 0.0
2017-Sep-11 01:58N 23°01' E 113°32'0 0.0
2017-Sep-11 01:28N 23°01' E 113°32'0 0.9
2017-Sep-11 01:00N 23°00' E 113°32'5 9.1
2017-Sep-11 00:30N 22°56' E 113°33'5 9.5
2017-Sep-11 00:00N 22°51' E 113°34'611.5
2017-Sep-10 23:30N 22°47' E 113°38'510.7
2017-Sep-10 23:00N 22°42' E 113°41'612.0
2017-Sep-10 22:30N 22°36' E 113°43'714.8
2017-Sep-10 22:00N 22°29' E 113°45'340 8.9
2017-Sep-09 07:48N 24°19' E 119°35'  
Track history (hours):
 
Tides and Currents Weather Stations Pressure Air Temp Water Temp Dewpoint Dewpoint Depression Visibility Wind Speed Wind Dir Waves Ship Positions

Trans Future 8

Last reported at 2017-Sep-11 13:43 UTC. Time now 2017-Oct-20 06:52 UTC.
Position N 22°26' E 113°45'.
Warning: this ship's position is 38 days out of date.

Length 166 m; draft 6.5 m.

Type: Cargo ship. MMSI: 371320000.

Date/timePositionNaut miles runAvg speedWind from/ knotsBaromVisibWave heightAir tempDewpointWater temp
2017-Sep-11 13:43N 22°26' E 113°45'513.8
2017-Sep-11 13:22N 22°31' E 113°45'613.3
2017-Sep-11 12:56N 22°36' E 113°43'511.2
2017-Sep-11 12:31N 22°40' E 113°41'510.9
2017-Sep-11 12:01N 22°45' E 113°39'611.6
2017-Sep-11 11:31N 22°50' E 113°35'5 9.8
2017-Sep-11 11:01N 22°55' E 113°34'510.1
2017-Sep-11 10:30N 22°60' E 113°32'1 2.1
2017-Sep-11 09:58N 23°01' E 113°32'0 0.0
2017-Sep-11 09:28N 23°01' E 113°32'0 0.0
2017-Sep-11 08:58N 23°01' E 113°32'0 0.0
2017-Sep-11 08:28N 23°01' E 113°32'0 0.0
2017-Sep-11 07:58N 23°01' E 113°32'0 0.0
2017-Sep-11 07:28N 23°01' E 113°32'0 0.0
2017-Sep-11 06:58N 23°01' E 113°32'0 0.0
2017-Sep-11 06:28N 23°01' E 113°32'0 0.0
2017-Sep-11 05:58N 23°01' E 113°32'0 0.0
2017-Sep-11 05:28N 23°01' E 113°32'0 0.0
2017-Sep-11 04:55N 23°01' E 113°32'0 0.0
2017-Sep-11 04:28N 23°01' E 113°32'0 0.0
2017-Sep-11 03:52N 23°01' E 113°32'0 0.1
2017-Sep-11 03:28N 23°01' E 113°32'0 0.1
2017-Sep-11 02:58N 23°01' E 113°32'0 0.0
2017-Sep-11 02:28N 23°01' E 113°32'0 0.0
2017-Sep-11 01:58N 23°01' E 113°32'0 0.0
2017-Sep-11 01:28N 23°01' E 113°32'0 0.9
2017-Sep-11 01:00N 23°00' E 113°32'5 9.1
2017-Sep-11 00:30N 22°56' E 113°33'5 9.5
2017-Sep-11 00:00N 22°51' E 113°34'611.5
2017-Sep-10 23:30N 22°47' E 113°38'510.7
2017-Sep-10 23:00N 22°42' E 113°41'612.0
2017-Sep-10 22:30N 22°36' E 113°43'714.8
2017-Sep-10 22:00N 22°29' E 113°45'340 8.9
2017-Sep-09 07:48N 24°19' E 119°35'  

Dump ship's entire track history